AirNav   Air Wisconsin pilot careers
 
 301 users online  

U98 Idaho City USFS Airport
Idaho City, Idaho, USA


FAA INFORMATION EFFECTIVE 01 FEBRUARY 2018

Location

FAA Identifier: U98
Lat/Long: 43-49-14.6150N / 115-51-03.3940W
43-49.243583N / 115-51.056567W
43.8207264 / -115.8509428
(estimated)
Elevation: 3920 ft. / 1195 m (estimated)
Variation: 17E (1985)
From city: 1 mile SW of IDAHO CITY, ID
Time zone: UTC -7 (UTC -6 during Daylight Saving Time)
Zip code: 83631

Airport Operations

Airport use: Open to the public
Activation date: 11/1948
Control tower: no
ARTCC: SALT LAKE CITY CENTER
FSS: BOISE FLIGHT SERVICE STATION
NOTAMs facility: BOI (NOTAM-D service available)
Attendance: UNATNDD
Wind indicator: yes
Segmented circle: yes

Airport Communications

CTAF: 122.9

Nearby radio navigation aids

VOR radial/distance  VOR name  Freq  Var
BOIr026/21.9BOISE VORTAC113.3017E

Airport Services

Airframe service: NONE
Powerplant service: NONE
Bottled oxygen: NONE
Bulk oxygen: NONE

Runway Information

Runway 4/22

Dimensions: 3400 x 50 ft. / 1036 x 15 m
Surface: gravel/dirt, in good condition
Runway edge markings: 04/22 EDGES & THRS MARKED WITH WHITE ROCK.
Operational restrictions: RECOMMEND LAND RY 04; TKOFF RY 22; WHEN WIND CONDITIONS PERMIT.
RUNWAY 4  RUNWAY 22
Gradient: 0.8%0.8%
Traffic pattern: leftleft
Obstructions: 62 ft. trees, 50 ft. from runway, 90 ft. left of centerline, 1:1 slope to clear55 ft. trees, 110 ft. left of centerline

Airport Ownership and Management from official FAA records

Ownership: Publicly-owned
Owner: US FOREST SERVICE
324 25TH ST
OGDEN, UT 84401
Phone 801-625-5511
Manager: IDAHO CITY RANGER DISTRICT
3833 HIGHWAY 21, P BOX 129
IDAHO CITY, ID 83631
Phone (208) 392-6681

Airport Operational Statistics

Aircraft operations: avg 38/week *
75% transient general aviation
20% air taxi
5% military
* for 12-month period ending 25 May 2016

Additional Remarks

A52 NUMEROUS ADDNL OBSTNS ON APCHS TO RWY 04 AND 22.
NO WINTER MAINTENANCE.
USFS HELICOPTER OPNS DURING FIRE SEASON.
NO TELEPHONE AVBL AT ARPT.
WEST 700 FT OF RY IS TURF; REMAINDER IS GRVL.

Instrument Procedures

There are no published instrument procedures at U98.

Some nearby airports with instrument procedures:

KBOI - Boise Air Terminal/Gowen Field (22 nm SW)
KMAN - Nampa Municipal Airport (33 nm SW)
KEUL - Caldwell Industrial Airport (36 nm W)
U76 - Mountain Home Municipal Airport (42 nm S)
KMUO - Mountain Home Air Force Base (47 nm S)
 
Loc | Ops | Rwys | IFR | FBO | Links
Com | Nav | Svcs | Stats | Notes

AirNav Hotels Sweepstakes
 
Area around U98 (Idaho City USFS Airport)
 
Road maps at: MapQuest Bing Google
 
Aerial photo
WARNING: Photo may not be current or correct
Aerial photo of U98 (Idaho City USFS Airport)
Photo by Bob Christensen
Photo taken 20-May-2012
looking north.

Do you have a better or more recent aerial photo of Idaho City USFS Airport that you would like to share? If so, please send us your photo.

 
Sectional chart

 
Airport distance calculator
Flying to Idaho City USFS Airport? Find the distance to fly.

From to U98

Sunrise and sunset
Times for 21-Feb-2018
 Local
(UTC-7)
 Zulu
(UTC)
Morning civil twilight07:0514:05
Sunrise07:3414:34
Sunset18:2001:20
Evening civil twilight18:4901:49

Current date and time
Zulu (UTC)  21-Feb-2018 09:10:06
Local (UTC-7)  21-Feb-2018 02:10:06
 
METAR
KBOI 
23nm SW 
210853Z 13008KT 10SM CLR M05/M15 A3015 RMK AO2 SLP239 T10501150 58001
KMAN 
33nm SW 
210855Z AUTO 16008KT 10SM OVC065 M05/M13 A3016 RMK A01
KEUL 
35nm W 
210856Z AUTO 11011KT 10SM CLR M05/M13 A3017 RMK AO2 SLP245 T10501133 58003 FZRANO
U76 
42nm S 
SuperAWOS
210755Z AUTO 06006KT 10SM M07/M14 A3010
KSNT 
45nm NE 
210851Z AUTO 00000KT M22/M24 A2999 RMK AO1 SLP230 T12171244 53005
TAF
KBOI 
23nm SW 
210538Z 2106/2206 13010KT P6SM SCT030 OVC090 FM211700 VRB06KT P6SM SCT030 BKN050 FM220100 VRB06KT P6SM VCSH SCT020 BKN040
NOTAMs
Click for the latest NOTAMs
NOTAMs are issued by the DoD/FAA and will open in a separate window not controlled by AirNav.

 

 
 

Would you like to see your business listed on this page?

 If your business provides an interesting product or service to pilots, flight crews, aircraft, or users of the Idaho City USFS Airport, you should consider listing it here.  To start the listing process, click on the button below
 
Add a business
 

Other Pages about Idaho City USFS Airport

Update a link
 
Copyright © AirNav, LLC. All rights reserved. Privacy Policy  Contact